Time;durP1;ratioP1;P1;durP2;ratioP2;P2;SDS_P1;SDS_P2;PMS_P1;PMS_P2;Temp;Humidity;BMP_temperature;BMP_pressure;BME280_temperature;BME280_humidity;BME280_pressure;Samples;Min_cycle;Max_cycle;Signal;HPM_P1;HPM_P2
2021/09/13 00:00:39;;;;;;;;;5.75;5.75;;;;;24.51;39.14;101220.44;5076936;28;46024;-56
2021/09/13 00:03:04;;;;;;;;;5.75;5.00;;;;;24.51;39.54;101225.75;5076819;28;45303;-56
2021/09/13 00:05:29;;;;;;;;;6.50;5.50;;;;;24.52;39.06;101222.16;5077015;28;45861;-55
2021/09/13 00:07:55;;;;;;;;;5.00;5.00;;;;;24.53;39.55;101226.47;5077128;28;45273;-55
2021/09/13 00:10:20;;;;;;;;;5.50;5.00;;;;;24.53;38.97;101229.13;5076669;28;45359;-55
2021/09/13 00:12:46;;;;;;;;;5.25;5.25;;;;;24.52;39.15;101227.44;5076833;28;45280;-55
2021/09/13 00:15:11;;;;;;;;;6.25;6.25;;;;;24.51;39.24;101223.94;5059029;28;45366;-55
2021/09/13 00:17:37;;;;;;;;;6.00;5.25;;;;;24.52;39.62;101224.81;5076954;28;45523;-54
2021/09/13 00:20:04;;;;;;;;;7.00;7.00;;;;;24.50;39.37;101224.88;5076654;28;45314;-56
2021/09/13 00:22:29;;;;;;;;;7.00;7.00;;;;;24.51;39.37;101223.94;5076601;28;45747;-56
2021/09/13 00:24:54;;;;;;;;;5.75;5.75;;;;;24.51;39.22;101220.44;5075903;28;48370;-54
2021/09/13 00:27:20;;;;;;;;;6.25;6.25;;;;;24.50;39.13;101218.75;5076887;28;45522;-55
2021/09/13 00:29:45;;;;;;;;;7.00;7.00;;;;;24.51;39.18;101209.84;5076838;28;45331;-54
2021/09/13 00:32:10;;;;;;;;;7.00;7.00;;;;;24.51;39.46;101204.56;5076855;28;45272;-57
2021/09/13 00:34:36;;;;;;;;;5.50;5.50;;;;;24.52;39.52;101203.59;5076691;28;45302;-56
2021/09/13 00:37:05;;;;;;;;;5.00;5.00;;;;;24.50;39.24;101193.09;5076674;28;45540;-55
2021/09/13 00:39:31;;;;;;;;;7.00;6.00;;;;;24.49;39.31;101182.59;5076476;28;46244;-54
2021/09/13 00:41:56;;;;;;;;;6.00;5.00;;;;;24.52;39.15;101190.34;5076486;28;45450;-56
2021/09/13 00:44:22;;;;;;;;;5.00;5.00;;;;;24.50;39.51;101192.25;5076583;28;45440;-56
2021/09/13 00:46:47;;;;;;;;;6.00;6.00;;;;;24.51;39.74;101188.66;5076782;28;45309;-55
2021/09/13 00:49:12;;;;;;;;;6.00;6.00;;;;;24.51;39.54;101188.66;5058310;28;47047;-57
2021/09/13 00:51:38;;;;;;;;;6.25;5.25;;;;;24.51;39.11;101193.94;5058079;28;45615;-56
2021/09/13 00:54:04;;;;;;;;;5.75;5.50;;;;;24.50;39.68;101182.50;5076280;28;45173;-57
2021/09/13 00:56:29;;;;;;;;;10.50;7.25;;;;;24.50;39.01;101190.44;5076608;28;45628;-55
2021/09/13 00:58:55;;;;;;;;;5.50;5.50;;;;;24.50;39.53;101189.59;5076055;28;46155;-56
2021/09/13 01:01:20;;;;;;;;;5.50;5.50;;;;;24.51;39.25;101188.66;5076011;28;45386;-56
2021/09/13 01:03:46;;;;;;;;;6.00;4.25;;;;;24.52;39.26;101193.00;5076724;28;47299;-56
2021/09/13 01:06:11;;;;;;;;;5.00;5.00;;;;;24.51;39.12;101188.66;5076338;28;45526;-57
2021/09/13 01:08:36;;;;;;;;;7.50;6.00;;;;;24.51;39.09;101191.31;5075873;28;46674;-56
2021/09/13 01:11:03;;;;;;;;;5.00;5.00;;;;;24.52;39.52;101190.34;5076108;28;45355;-55
2021/09/13 01:13:28;;;;;;;;;8.00;7.00;;;;;24.51;39.34;101188.66;5076086;28;45321;-56
2021/09/13 01:15:53;;;;;;;;;6.00;6.00;;;;;24.51;39.47;101193.94;5076272;28;45252;-55
2021/09/13 01:18:19;;;;;;;;;6.00;6.00;;;;;24.51;39.33;101188.66;5075931;28;45469;-54
2021/09/13 01:20:45;;;;;;;;;6.00;6.00;;;;;24.51;39.69;101193.94;5076129;28;45468;-54
2021/09/13 01:23:23;;;;;;;;;5.75;5.75;;;;;24.51;39.38;101193.94;5076085;28;45370;-55
2021/09/13 01:25:48;;;;;;;;;6.50;6.25;;;;;24.50;39.81;101194.91;5076693;28;45255;-56
2021/09/13 01:28:14;;;;;;;;;6.00;6.00;;;;;24.52;39.97;101198.31;5076089;28;46561;-56
2021/09/13 01:30:39;;;;;;;;;6.00;6.00;;;;;24.51;39.70;101191.31;5075808;28;45292;-55
2021/09/13 01:33:04;;;;;;;;;5.00;5.00;;;;;24.50;39.47;101187.78;5075764;28;45395;-55
2021/09/13 01:35:30;;;;;;;;;5.75;5.75;;;;;24.52;39.72;101185.88;5076040;28;45582;-56
2021/09/13 01:37:55;;;;;;;;;6.00;6.00;;;;;24.50;39.81;101181.66;5077098;28;45648;-55
2021/09/13 01:40:20;;;;;;;;;6.50;6.25;;;;;24.50;39.52;101177.19;5079137;28;45452;-56
2021/09/13 01:42:46;;;;;;;;;7.00;6.00;;;;;24.50;39.49;101177.19;5079683;28;45339;-56
2021/09/13 01:45:11;;;;;;;;;8.25;6.50;;;;;24.50;39.39;101176.34;5079255;28;45355;-56
2021/09/13 01:47:37;;;;;;;;;5.75;5.75;;;;;24.51;39.34;101183.34;5078930;28;46331;-53
2021/09/13 01:50:03;;;;;;;;;7.00;5.50;;;;;24.51;39.32;101175.41;5078947;28;45298;-55
2021/09/13 01:52:28;;;;;;;;;6.00;6.00;;;;;24.49;39.84;101174.66;5079034;27;45374;-54
2021/09/13 01:54:53;;;;;;;;;5.00;5.00;;;;;24.50;39.50;101179.00;5079246;28;45385;-53
2021/09/13 01:57:18;;;;;;;;;7.00;6.00;;;;;24.50;39.60;101184.31;5079082;28;45473;-56
2021/09/13 01:59:44;;;;;;;;;7.25;7.25;;;;;24.50;39.51;101193.09;5078590;28;45350;-56
2021/09/13 02:02:09;;;;;;;;;8.25;6.75;;;;;24.50;39.72;101194.91;5079012;28;45315;-55
2021/09/13 02:04:34;;;;;;;;;7.75;6.25;;;;;24.49;39.84;101190.56;5078948;28;45517;-56
2021/09/13 02:07:00;;;;;;;;;8.50;6.00;;;;;24.50;39.71;101192.25;5078512;28;46356;-56
2021/09/13 02:09:25;;;;;;;;;6.25;6.25;;;;;24.50;39.22;101186.94;5078594;28;45304;-55
2021/09/13 02:11:50;;;;;;;;;5.00;5.00;;;;;24.49;40.08;101185.25;5079043;28;45447;-56
2021/09/13 02:14:16;;;;;;;;;5.25;5.25;;;;;24.48;39.59;101176.44;5079180;28;45200;-54
2021/09/13 02:16:41;;;;;;;;;7.00;6.00;;;;;24.47;39.92;101182.72;5078593;28;45233;-53
2021/09/13 02:19:07;;;;;;;;;8.00;5.50;;;;;24.49;39.92;101182.59;5078421;28;45430;-55
2021/09/13 02:21:32;;;;;;;;;7.75;6.00;;;;;24.48;39.90;101179.09;5078621;28;45264;-55
2021/09/13 02:23:58;;;;;;;;;5.25;5.25;;;;;24.48;39.53;101178.25;5060276;28;45556;-54
2021/09/13 02:26:23;;;;;;;;;6.00;5.00;;;;;24.48;39.66;101178.25;5078199;28;46159;-55
2021/09/13 02:28:48;;;;;;;;;5.25;5.25;;;;;24.47;39.60;101179.19;5078707;28;45370;-53
2021/09/13 02:31:14;;;;;;;;;5.00;5.00;;;;;24.47;40.03;101179.19;5078617;28;45267;-55
2021/09/13 02:33:39;;;;;;;;;8.00;5.25;;;;;24.47;40.05;101181.84;5078490;28;45540;-55
2021/09/13 02:36:04;;;;;;;;;8.50;8.00;;;;;24.47;40.04;101184.50;5077063;28;45385;-55
2021/09/13 02:38:30;;;;;;;;;7.00;6.00;;;;;24.47;40.02;101181.84;5078372;28;45374;-58
2021/09/13 02:40:55;;;;;;;;;6.25;5.75;;;;;24.46;39.97;101180.16;5078352;28;45331;-56
2021/09/13 02:43:20;;;;;;;;;6.50;5.00;;;;;24.46;39.64;101175.72;5078685;28;45241;-55
2021/09/13 02:45:46;;;;;;;;;5.00;4.00;;;;;24.47;39.68;101181.84;5078087;28;45391;-55
2021/09/13 02:48:11;;;;;;;;;7.00;7.00;;;;;24.46;39.77;101177.50;5077411;28;45342;-54
2021/09/13 02:50:37;;;;;;;;;6.00;6.00;;;;;24.45;39.91;101186.41;5078210;28;45304;-53
2021/09/13 02:53:02;;;;;;;;;7.00;5.75;;;;;24.46;39.83;101181.00;5078278;28;45322;-54
2021/09/13 02:55:28;;;;;;;;;6.00;5.00;;;;;24.45;39.48;101179.31;5077955;28;46769;-55
2021/09/13 02:57:53;;;;;;;;;7.00;5.00;;;;;24.46;39.71;101175.72;5078208;28;45438;-53
2021/09/13 03:00:20;;;;;;;;;6.00;6.00;;;;;24.45;39.52;101174.00;5078227;28;45319;-55
2021/09/13 03:02:45;;;;;;;;;8.25;6.50;;;;;24.45;39.61;101175.78;5077929;28;45348;-57
2021/09/13 03:05:11;;;;;;;;;5.00;5.00;;;;;24.45;39.65;101173.16;5077589;28;45690;-55
2021/09/13 03:07:36;;;;;;;;;6.25;6.25;;;;;24.44;39.96;101169.66;5077669;28;45175;-56
2021/09/13 03:10:03;;;;;;;;;5.00;5.00;;;;;24.44;40.10;101160.84;5077858;28;45350;-55
2021/09/13 03:12:33;;;;;;;;;5.00;5.00;;;;;24.43;40.18;101154.72;5077940;28;45336;-56
2021/09/13 03:14:59;;;;;;;;;7.50;6.00;;;;;24.43;39.56;101160.00;5077614;28;46528;-55
2021/09/13 03:17:24;;;;;;;;;6.00;6.00;;;;;24.43;39.99;101164.44;5077747;28;45335;-54
2021/09/13 03:19:49;;;;;;;;;5.25;5.00;;;;;24.42;39.66;101163.63;5078023;28;45505;-56
2021/09/13 03:22:15;;;;;;;;;5.25;5.25;;;;;24.42;39.55;101162.78;5077829;28;45617;-55
2021/09/13 03:24:40;;;;;;;;;5.25;5.00;;;;;24.41;40.11;101155.78;5077285;28;45582;-55
2021/09/13 03:27:05;;;;;;;;;5.50;5.50;;;;;24.41;40.07;101163.72;5077411;28;45288;-55
2021/09/13 03:29:31;;;;;;;;;6.50;5.00;;;;;24.42;39.91;101162.78;5093250;27;45278;-53
2021/09/13 03:31:56;;;;;;;;;4.00;4.00;;;;;24.41;39.62;101161.91;5077677;28;45552;-53
2021/09/13 03:34:21;;;;;;;;;7.75;6.25;;;;;24.41;39.69;101153.13;5077570;28;46411;-53
2021/09/13 03:36:47;;;;;;;;;7.00;7.00;;;;;24.43;39.78;101156.50;5077397;28;45442;-53
2021/09/13 03:39:12;;;;;;;;;6.25;6.00;;;;;24.40;39.93;101157.56;5077358;28;45221;-55
2021/09/13 03:41:37;;;;;;;;;7.75;6.25;;;;;24.39;40.03;101156.72;5077441;28;45521;-56
2021/09/13 03:44:03;;;;;;;;;6.00;6.00;;;;;24.39;39.90;101148.78;5076984;28;46769;-56
2021/09/13 03:46:29;;;;;;;;;7.75;5.50;;;;;24.39;40.09;101153.22;5077180;28;45351;-55
2021/09/13 03:48:54;;;;;;;;;6.00;6.00;;;;;24.39;40.05;101154.06;5077504;28;45368;-57
2021/09/13 03:51:19;;;;;;;;;6.00;6.00;;;;;24.39;39.76;101151.44;5077597;28;45545;-54
2021/09/13 03:53:44;;;;;;;;;7.50;7.50;;;;;24.38;39.59;101151.50;5077020;28;46114;-54
2021/09/13 03:56:10;;;;;;;;;6.00;6.00;;;;;24.38;40.23;101155.03;5076782;28;50149;-55
2021/09/13 03:58:35;;;;;;;;;6.00;6.00;;;;;24.37;39.85;101150.69;5077102;28;45352;-54
2021/09/13 04:01:00;;;;;;;;;5.50;5.50;;;;;24.37;40.19;101149.81;5075855;28;45245;-54
2021/09/13 04:03:32;;;;;;;;;6.00;6.00;;;;;24.37;40.15;101148.03;5077083;28;45366;-54
2021/09/13 04:05:58;;;;;;;;;6.50;5.25;;;;;24.35;39.84;101149.94;5076617;28;45742;-55
2021/09/13 04:13:23;;;;;;;;;7.00;6.25;;;;;24.35;40.50;101146.44;5076978;28;46062;-55
2021/09/13 04:15:48;;;;;;;;;5.00;5.00;;;;;24.35;40.16;101143.78;5076613;28;45318;-54
2021/09/13 04:18:13;;;;;;;;;7.50;7.00;;;;;24.34;40.08;101150.88;5076816;28;45408;-53
2021/09/13 04:20:39;;;;;;;;;7.00;5.50;;;;;24.34;40.03;101145.56;5077039;28;45253;-54
2021/09/13 04:23:04;;;;;;;;;6.50;6.50;;;;;24.33;40.32;101148.34;5076544;28;46160;-53
2021/09/13 04:25:29;;;;;;;;;7.25;7.00;;;;;24.32;40.29;101147.47;5058345;28;45427;-54
2021/09/13 04:27:55;;;;;;;;;9.00;7.00;;;;;24.34;40.41;101142.94;5077037;28;45491;-56
2021/09/13 04:30:23;;;;;;;;;5.75;4.25;;;;;24.33;39.95;101133.28;5092499;27;45328;-53
2021/09/13 04:32:48;;;;;;;;;6.50;6.50;;;;;24.32;40.13;101139.53;5076394;28;46636;-55
2021/09/13 04:35:13;;;;;;;;;6.00;6.00;;;;;24.31;40.60;101135.19;5076600;28;45422;-54
2021/09/13 04:37:39;;;;;;;;;8.25;6.25;;;;;24.31;40.51;101137.81;5076628;28;45331;-55
2021/09/13 04:40:05;;;;;;;;;7.50;6.75;;;;;24.31;40.46;101134.34;5076825;28;45584;-54
2021/09/13 04:42:30;;;;;;;;;6.75;5.50;;;;;24.30;40.41;101138.81;5076359;28;46174;-55
2021/09/13 04:44:55;;;;;;;;;5.75;5.00;;;;;24.31;39.97;101145.78;5076454;28;45209;-54
2021/09/13 04:47:20;;;;;;;;;7.50;6.50;;;;;24.31;40.19;101139.63;5076534;28;45248;-53
2021/09/13 04:49:46;;;;;;;;;5.50;5.50;;;;;24.30;40.39;101141.47;5076726;28;45473;-53
2021/09/13 04:52:11;;;;;;;;;6.75;5.50;;;;;24.30;40.42;101143.25;5076138;28;46142;-53
2021/09/13 04:54:37;;;;;;;;;7.25;6.25;;;;;24.29;40.47;101141.53;5076254;28;45377;-53
2021/09/13 04:57:02;;;;;;;;;9.75;9.00;;;;;24.28;40.58;101140.69;5076185;28;45379;-53
2021/09/13 04:59:27;;;;;;;;;7.75;7.75;;;;;24.27;40.20;101136.34;5076490;28;45147;-56
2021/09/13 05:01:53;;;;;;;;;6.00;6.00;;;;;24.28;40.76;101139.84;5076281;28;46569;-53
2021/09/13 05:04:18;;;;;;;;;6.00;6.00;;;;;24.27;40.41;101136.34;5076217;28;45252;-52
2021/09/13 05:06:43;;;;;;;;;8.00;6.50;;;;;24.27;40.72;101132.84;5076382;28;45252;-55
2021/09/13 05:09:09;;;;;;;;;6.25;6.25;;;;;24.28;40.38;101132.75;5075168;28;45304;-49
2021/09/13 05:11:34;;;;;;;;;9.50;9.00;;;;;24.26;40.71;101126.72;5077176;28;46560;-53
2021/09/13 05:14:00;;;;;;;;;10.00;10.00;;;;;24.18;40.49;101129.03;5079735;28;45658;-50
2021/09/13 05:16:25;;;;;;;;;6.75;6.25;;;;;24.06;40.21;101130.66;5079920;28;45917;-52
2021/09/13 05:18:50;;;;;;;;;8.25;8.25;;;;;23.95;40.72;101131.38;5079932;28;45633;-51
2021/09/13 05:21:16;;;;;;;;;8.50;8.50;;;;;23.86;40.57;101134.59;5079416;28;47050;-56
2021/09/13 05:23:41;;;;;;;;;13.75;10.50;;;;;23.76;41.06;101129.88;5079367;28;45512;-51
2021/09/13 05:26:07;;;;;;;;;8.50;8.50;;;;;23.67;40.94;101125.19;5079516;28;45363;-50
2021/09/13 05:28:32;;;;;;;;;10.50;10.50;;;;;23.59;41.47;101127.50;5079754;28;45617;-50
2021/09/13 05:30:58;;;;;;;;;8.25;8.25;;;;;23.51;41.08;101124.50;5095192;27;47467;-51
2021/09/13 05:33:24;;;;;;;;;11.50;10.25;;;;;23.45;41.36;101126.56;5079274;28;45363;-52
2021/09/13 05:35:49;;;;;;;;;10.00;7.75;;;;;23.37;41.48;101128.00;5079214;28;45324;-51
2021/09/13 05:38:15;;;;;;;;;8.00;8.00;;;;;23.33;41.72;101126.50;5079132;28;46409;-48
2021/09/13 05:40:41;;;;;;;;;10.50;9.00;;;;;23.25;41.85;101129.63;5078999;28;45394;-49
2021/09/13 05:43:07;;;;;;;;;10.25;8.00;;;;;23.19;41.69;101124.69;5079191;28;45383;-49
2021/09/13 05:45:34;;;;;;;;;10.00;7.75;;;;;23.15;41.82;101126.69;5079106;28;45335;-50
2021/09/13 05:47:59;;;;;;;;;9.75;8.25;;;;;23.10;41.95;101121.66;5079614;28;45438;-50
2021/09/13 05:50:25;;;;;;;;;10.75;9.00;;;;;23.07;42.40;101123.63;5078885;28;46517;-48
2021/09/13 05:52:50;;;;;;;;;10.00;10.00;;;;;23.05;42.40;101128.16;5078772;28;45296;-49
2021/09/13 05:55:16;;;;;;;;;10.50;9.25;;;;;23.01;42.13;101127.50;5079045;28;45426;-48
2021/09/13 05:57:41;;;;;;;;;10.25;10.25;;;;;22.99;42.33;101119.69;5079113;28;45253;-49
2021/09/13 06:00:07;;;;;;;;;13.00;10.75;;;;;22.95;42.71;101130.53;5078506;28;45460;-50
2021/09/13 06:02:33;;;;;;;;;9.50;9.50;;;;;22.94;42.72;101132.31;5078887;28;45825;-48
2021/09/13 06:04:58;;;;;;;;;8.00;8.00;;;;;22.92;42.73;101130.72;5079153;28;45300;-49
2021/09/13 06:07:24;;;;;;;;;9.25;8.50;;;;;22.88;42.68;101129.19;5079023;28;45603;-51
2021/09/13 06:09:49;;;;;;;;;10.50;10.00;;;;;22.85;42.75;101128.47;5078621;28;46199;-52
2021/09/13 06:12:16;;;;;;;;;10.00;10.00;;;;;22.85;42.76;101135.53;5078609;28;45432;-51
2021/09/13 06:14:43;;;;;;;;;11.50;9.50;;;;;22.81;42.95;101124.28;5078523;28;45343;-49
2021/09/13 06:17:09;;;;;;;;;8.25;8.25;;;;;22.80;42.98;101135.81;5079002;28;45445;-48
2021/09/13 06:19:35;;;;;;;;;10.00;9.50;;;;;22.79;43.12;101128.81;5078368;28;46218;-50
2021/09/13 06:22:00;;;;;;;;;11.25;10.75;;;;;22.79;43.15;101127.97;5078777;28;45427;-50
2021/09/13 06:24:25;;;;;;;;;11.00;10.00;;;;;22.77;43.22;101135.97;5077630;28;45334;-47
2021/09/13 06:26:51;;;;;;;;;10.25;10.25;;;;;22.77;43.27;101135.97;5078591;28;45287;-50
2021/09/13 06:29:16;;;;;;;;;12.50;11.50;;;;;22.76;43.35;101139.59;5078268;28;46287;-47
2021/09/13 06:31:41;;;;;;;;;10.50;10.00;;;;;22.75;43.23;101143.19;5078391;28;45366;-50
2021/09/13 06:34:08;;;;;;;;;12.50;11.25;;;;;22.73;43.42;101139.78;5078486;28;45414;-50
2021/09/13 06:36:33;;;;;;;;;12.50;12.50;;;;;22.74;43.62;101140.59;5079033;28;45371;-51
2021/09/13 06:38:59;;;;;;;;;13.25;11.50;;;;;22.72;43.51;101138.06;5078578;28;45576;-53
2021/09/13 06:41:24;;;;;;;;;13.00;11.50;;;;;22.71;43.51;101139.00;5078302;28;45331;-50
2021/09/13 06:43:52;;;;;;;;;13.75;12.00;;;;;22.72;43.76;101145.13;5078208;28;45446;-51
2021/09/13 06:46:23;;;;;;;;;11.50;10.75;;;;;22.69;43.88;101149.69;5078296;28;45603;-50
2021/09/13 06:48:49;;;;;;;;;11.50;11.50;;;;;22.70;43.76;101156.66;5077948;28;46962;-49
2021/09/13 06:51:15;;;;;;;;;11.75;11.50;;;;;22.69;43.56;101159.38;5078045;28;45840;-47
2021/09/13 06:53:40;;;;;;;;;10.50;9.50;;;;;22.68;43.80;101158.53;5078147;28;45328;-49
2021/09/13 06:56:06;;;;;;;;;14.50;11.00;;;;;22.68;43.86;101158.53;5059947;28;45357;-49
2021/09/13 06:58:34;;;;;;;;;14.00;11.50;;;;;22.68;43.83;101157.69;5078302;28;45280;-48
2021/09/13 07:00:59;;;;;;;;;14.50;12.75;;;;;22.70;43.93;101155.81;5077592;28;45782;-50
2021/09/13 07:03:25;;;;;;;;;10.75;10.75;;;;;22.70;43.92;101169.00;5077915;28;45806;-52
2021/09/13 07:05:51;;;;;;;;;12.75;10.25;;;;;22.69;43.96;101154.09;5078153;28;45432;-50
2021/09/13 07:08:17;;;;;;;;;19.50;13.00;;;;;22.72;43.79;101159.22;5077675;28;45366;-51
2021/09/13 07:10:42;;;;;;;;;11.25;10.25;;;;;22.71;43.95;101152.22;5077560;28;45348;-48
2021/09/13 07:13:08;;;;;;;;;14.00;14.00;;;;;22.73;44.01;101152.97;5077691;28;45347;-51
2021/09/13 07:15:33;;;;;;;;;11.25;10.25;;;;;22.73;44.00;101152.97;5078141;28;45321;-51
2021/09/13 07:17:59;;;;;;;;;14.25;11.00;;;;;22.75;43.87;101151.09;5077433;28;45461;-53
2021/09/13 07:20:24;;;;;;;;;14.75;14.00;;;;;22.75;44.01;101143.19;5077472;28;45273;-49
2021/09/13 07:22:50;;;;;;;;;14.25;12.25;;;;;22.76;43.98;101149.28;5077610;28;45370;-48
2021/09/13 07:25:16;;;;;;;;;13.00;10.00;;;;;22.75;44.02;101153.75;5077617;28;45583;-48
2021/09/13 07:27:41;;;;;;;;;15.00;11.75;;;;;22.77;43.79;101148.34;5077407;28;45508;-50
2021/09/13 07:30:08;;;;;;;;;11.25;10.25;;;;;22.77;43.99;101146.56;5077641;28;45253;-49
2021/09/13 07:32:33;;;;;;;;;12.75;12.75;;;;;22.80;43.81;101148.19;5077767;28;45405;-53
2021/09/13 07:34:59;;;;;;;;;12.25;11.50;;;;;22.78;44.11;101142.97;5077596;28;45172;-50
2021/09/13 07:37:24;;;;;;;;;17.00;15.00;;;;;22.81;44.03;101140.16;5077114;27;46350;-50
2021/09/13 07:39:50;;;;;;;;;12.25;12.25;;;;;22.81;43.87;101148.06;5077196;28;45237;-48
2021/09/13 07:42:15;;;;;;;;;14.00;13.00;;;;;22.83;43.81;101145.34;5077286;28;45521;-51
2021/09/13 07:44:40;;;;;;;;;10.75;10.00;;;;;22.82;44.08;101138.38;5077343;28;45422;-50
2021/09/13 07:47:06;;;;;;;;;12.00;12.00;;;;;22.84;44.14;101141.75;5077400;28;45451;-50
2021/09/13 07:49:31;;;;;;;;;14.00;11.50;;;;;22.83;43.95;101140.06;5077103;28;45400;-50
2021/09/13 07:51:57;;;;;;;;;15.50;14.50;;;;;22.84;43.89;101142.63;5077215;28;45315;-49
2021/09/13 07:54:22;;;;;;;;;12.25;12.25;;;;;22.86;43.77;101137.22;5077222;28;45584;-51
2021/09/13 07:56:47;;;;;;;;;18.50;14.75;;;;;22.87;44.08;101138.94;5076979;28;45615;-47
2021/09/13 07:59:13;;;;;;;;;15.25;15.00;;;;;22.87;43.93;101141.56;5076814;28;45350;-51
2021/09/13 08:01:38;;;;;;;;;14.00;14.00;;;;;22.90;44.02;101132.59;5059016;28;45467;-49
2021/09/13 08:04:05;;;;;;;;;16.00;14.25;;;;;22.91;43.86;101131.66;5077351;27;45319;-50
2021/09/13 08:06:30;;;;;;;;;17.50;14.00;;;;;22.93;43.99;101124.50;5076695;28;46559;-50
2021/09/13 08:08:55;;;;;;;;;15.50;12.00;;;;;22.93;43.73;101121.84;5076787;28;45324;-50
2021/09/13 08:11:21;;;;;;;;;12.75;12.75;;;;;22.93;43.84;101120.03;5077011;28;45358;-50
2021/09/13 08:13:47;;;;;;;;;12.50;11.75;;;;;22.96;43.92;101117.22;5077053;28;45489;-48
2021/09/13 08:16:12;;;;;;;;;15.00;11.75;;;;;22.96;43.84;101111.09;5076678;28;46453;-51
2021/09/13 08:18:39;;;;;;;;;12.25;12.00;;;;;22.97;44.04;101121.56;5076971;28;45305;-49
2021/09/13 08:21:05;;;;;;;;;13.00;13.00;;;;;22.98;43.96;101111.84;5077054;28;45315;-50
2021/09/13 08:23:34;;;;;;;;;13.50;12.00;;;;;23.01;43.78;101123.09;5076909;28;45529;-51
2021/09/13 08:26:01;;;;;;;;;15.25;11.25;;;;;23.04;43.80;101121.22;5076403;28;45652;-53
2021/09/13 08:28:27;;;;;;;;;13.25;11.75;;;;;23.06;43.74;101119.28;5076583;28;45289;-54
2021/09/13 08:30:53;;;;;;;;;14.75;12.50;;;;;23.05;43.98;101118.47;5076705;28;45363;-53
2021/09/13 08:33:18;;;;;;;;;13.50;12.00;;;;;23.07;43.93;101115.72;5076787;28;45229;-50
2021/09/13 08:35:45;;;;;;;;;14.00;11.75;;;;;23.07;43.60;101103.34;5076419;28;45894;-54
2021/09/13 08:38:11;;;;;;;;;12.75;12.75;;;;;23.09;43.77;101103.25;5076463;28;45425;-53
2021/09/13 08:40:36;;;;;;;;;11.00;11.00;;;;;23.10;43.64;101105.78;5076826;28;45384;-52
2021/09/13 08:43:03;;;;;;;;;12.50;12.50;;;;;23.11;43.83;101107.50;5092406;27;45560;-48
2021/09/13 08:48:48;;;;;;;;;12.50;10.50;;;;;23.16;43.65;101102.78;5079622;28;45480;-49
2021/09/13 08:53:19;;;;;;;;;14.00;10.50;;;;;23.23;43.57;101116.50;5080421;28;45497;-50
2021/09/13 08:55:45;;;;;;;;;10.50;9.00;;;;;23.26;43.76;101120.75;5079667;28;45249;-54
2021/09/13 08:58:16;;;;;;;;;9.00;9.00;;;;;23.30;43.32;101128.38;5079822;28;45336;-50
2021/09/13 09:00:42;;;;;;;;;10.50;8.25;;;;;23.32;43.69;101130.91;5079704;28;45228;-51
2021/09/13 09:03:09;;;;;;;;;10.25;9.75;;;;;23.35;43.24;101135.19;5062129;28;45280;-50
2021/09/13 09:05:45;;;;;;;;;8.75;8.75;;;;;23.36;43.16;101135.09;5079525;28;45615;-51
2021/09/13 09:08:24;;;;;;;;;9.00;9.00;;;;;23.37;43.03;101130.66;5079951;28;45393;-51
2021/09/13 09:11:02;;;;;;;;;8.75;8.25;;;;;23.39;43.48;101140.19;5079869;28;45327;-47
2021/09/13 09:13:42;;;;;;;;;11.75;9.00;;;;;23.42;43.29;101141.78;5079838;28;45523;-50
2021/09/13 09:16:08;;;;;;;;;10.00;8.75;;;;;23.43;43.46;101130.25;5079856;28;45392;-50
2021/09/13 09:18:44;;;;;;;;;11.50;9.50;;;;;23.45;43.05;101126.56;5079534;28;45730;-49
2021/09/13 09:21:28;;;;;;;;;7.00;6.50;;;;;23.45;43.57;101126.56;5079820;28;45319;-51
2021/09/13 09:23:57;;;;;;;;;7.00;7.00;;;;;23.51;43.32;101129.78;5079733;28;45485;-50
2021/09/13 09:26:23;;;;;;;;;8.00;8.00;;;;;23.53;43.27;101125.25;5079406;28;45390;-52
2021/09/13 09:28:49;;;;;;;;;9.50;8.00;;;;;23.54;43.29;101118.97;5061161;28;45731;-50
2021/09/13 09:31:15;;;;;;;;;8.00;7.75;;;;;23.55;42.75;101116.25;5079685;28;45209;-49
2021/09/13 09:33:41;;;;;;;;;9.25;8.00;;;;;23.59;42.90;101127.50;5079963;28;45474;-51
2021/09/13 09:36:15;;;;;;;;;6.25;6.25;;;;;23.59;43.09;101124.84;5079208;28;46505;-51
2021/09/13 09:38:42;;;;;;;;;6.75;6.75;;;;;23.62;43.11;101117.56;5079318;28;50272;-52
2021/09/13 09:41:11;;;;;;;;;6.00;6.00;;;;;23.62;42.94;101111.44;5079718;28;45333;-50
2021/09/13 09:44:01;;;;;;;;;8.00;7.50;;;;;23.66;42.95;101115.56;5079535;28;45189;-50
2021/09/13 09:46:38;;;;;;;;;9.25;8.75;;;;;23.68;42.87;101115.47;5078966;28;45396;-48
2021/09/13 09:49:07;;;;;;;;;5.00;3.75;;;;;23.72;43.06;101117.81;5078968;28;45355;-52
2021/09/13 09:51:38;;;;;;;;;8.50;8.50;;;;;23.74;42.90;101115.94;5079187;28;45379;-49
2021/09/13 09:54:10;;;;;;;;;10.00;8.00;;;;;23.77;42.84;101115.72;5079346;28;45470;-52
2021/09/13 09:56:35;;;;;;;;;5.50;5.25;;;;;23.78;42.86;101100.69;5078968;28;46499;-53
2021/09/13 09:59:09;;;;;;;;;6.00;5.25;;;;;23.80;42.89;101096.16;5077623;28;45671;-53
2021/09/13 10:01:44;;;;;;;;;12.50;8.00;;;;;23.83;43.09;101087.16;5079216;28;45181;-53
2021/09/13 10:04:15;;;;;;;;;7.50;7.50;;;;;23.84;43.02;101084.41;5079590;28;45362;-50
2021/09/13 10:06:42;;;;;;;;;8.75;8.75;;;;;23.86;42.88;101081.66;5079082;28;45434;-48
2021/09/13 10:09:09;;;;;;;;;8.25;7.25;;;;;23.87;42.27;101083.34;5078873;28;45694;-51
2021/09/13 10:11:39;;;;;;;;;8.50;6.50;;;;;23.91;42.89;101072.47;5078907;28;45177;-53
2021/09/13 10:14:04;;;;;;;;;6.75;6.75;;;;;23.91;42.53;101055.72;5079050;28;45278;-56
2021/09/13 10:16:31;;;;;;;;;9.00;7.50;;;;;23.93;42.49;101059.13;5078711;28;46368;-55
2021/09/13 10:18:58;;;;;;;;;9.50;7.00;;;;;23.97;42.77;101062.44;5078789;28;45359;-56
2021/09/13 10:21:23;;;;;;;;;8.00;8.00;;;;;23.97;43.02;101060.66;5078840;28;45322;-57
2021/09/13 10:23:48;;;;;;;;;6.75;4.75;;;;;24.00;42.51;101056.97;5078781;28;45307;-57
2021/09/13 10:26:14;;;;;;;;;8.75;7.25;;;;;23.99;42.97;101056.09;5094509;27;47910;-55
2021/09/13 10:29:01;;;;;;;;;8.25;6.50;;;;;24.04;42.86;101063.72;5078467;28;45189;-56
2021/09/13 10:31:41;;;;;;;;;9.00;7.25;;;;;24.05;42.73;101061.00;5078559;28;45391;-56
2021/09/13 10:34:24;;;;;;;;;7.25;7.00;;;;;24.06;42.50;101057.41;5078681;28;45709;-53
2021/09/13 10:36:58;;;;;;;;;7.00;6.00;;;;;24.08;42.73;101049.34;5078345;28;45368;-56
2021/09/13 10:39:48;;;;;;;;;10.25;8.00;;;;;24.11;42.80;101045.63;5078229;28;45322;-52
2021/09/13 10:42:47;;;;;;;;;8.00;8.00;;;;;24.12;42.89;101050.84;5060465;28;45291;-49
2021/09/13 10:45:18;;;;;;;;;10.00;8.25;;;;;24.13;43.07;101052.53;5078536;28;45540;-54
2021/09/13 10:47:45;;;;;;;;;6.50;6.50;;;;;24.16;43.01;101051.47;5078418;28;45779;-54
2021/09/13 10:50:47;;;;;;;;;7.00;7.00;;;;;24.16;42.69;101039.06;5078187;28;45766;-54
2021/09/13 10:53:18;;;;;;;;;6.75;6.75;;;;;24.19;42.68;101043.34;5078595;28;45323;-57
2021/09/13 10:55:49;;;;;;;;;7.75;6.75;;;;;24.21;42.93;101038.75;5078494;28;45423;-53
2021/09/13 10:58:42;;;;;;;;;6.25;6.00;;;;;24.24;42.96;101043.84;5078245;28;45548;-55
2021/09/13 11:01:12;;;;;;;;;6.50;6.50;;;;;24.24;42.52;101028.81;5077955;28;45394;-50
2021/09/13 11:03:39;;;;;;;;;7.00;6.75;;;;;24.26;42.57;101031.34;5078107;28;45737;-50
2021/09/13 11:06:08;;;;;;;;;8.00;6.75;;;;;24.28;42.62;101037.41;5078027;28;45529;-55
2021/09/13 11:08:43;;;;;;;;;9.00;7.00;;;;;24.30;42.81;101035.50;5077752;28;46775;-56
2021/09/13 11:11:17;;;;;;;;;7.50;6.75;;;;;24.32;42.85;101036.22;5077720;28;45430;-51
2021/09/13 11:13:45;;;;;;;;;8.25;6.75;;;;;24.34;42.77;101028.19;5078153;28;45320;-55
2021/09/13 11:16:16;;;;;;;;;8.00;7.00;;;;;24.34;42.68;101017.59;5077957;28;45295;-54
2021/09/13 11:18:43;;;;;;;;;7.75;7.75;;;;;24.35;42.53;101009.53;5077524;28;47352;-53
2021/09/13 11:21:21;;;;;;;;;5.75;5.75;;;;;24.38;42.77;101006.69;5077632;28;45366;-53
2021/09/13 11:23:49;;;;;;;;;10.00;6.75;;;;;24.42;42.56;101009.97;5078081;28;45422;-54
2021/09/13 11:26:27;;;;;;;;;9.50;5.75;;;;;24.44;42.72;101007.19;5078204;28;45371;-50
2021/09/13 11:29:26;;;;;;;;;7.00;6.50;;;;;24.47;42.59;101002.56;5077427;28;46395;-52
2021/09/13 11:32:03;;;;;;;;;7.75;7.00;;;;;24.49;42.94;101005.09;5077599;28;45371;-53